San Antonio, Texas
Current Conditions -  °F | °C
As of 4:43 AM on Thursday 18 Dec 2014 (Local Time) from KSKF Reporting Station
Haze Haze  
Wind Chill: 14°   Ceiling: 300
Heat Index: 14°   Visibility: 1.7mi
Dew Point: 14°   Wind: 6mph
Humidity: 100%   Direction: 20°NNE
Pressure: 30.03"   Gusts: NA
Location:  29.42°N, 98.49°W
Report Text: KSKF 181043Z AUTO 02005KT 1 3/4SM R15/4000FT BR OVC003 14/14 A3003 RMK AO2 $
Loading
Personal Weather Stations






























Interactive Weather Map New forecast layout! Learn more

10-Day Weather Forecast

Advertisements
Track Severe Weather on mobile